TimeEDT,TemperatureF,Dew PointF,Humidity,Sea Level PressureIn,VisibilityMPH,Wind Direction,Wind SpeedMPH,Gust SpeedMPH,PrecipitationIn,Events,Conditions,WindDirDegrees,DateUTC
12:51 AM,39.0,28.0,65,29.88,10.0,West,9.2,-,N/A,,Partly Cloudy,280,2013-03-27 04:51:00
1:51 AM,39.0,28.0,65,29.88,10.0,WNW,10.4,-,N/A,,Clear,300,2013-03-27 05:51:00
2:51 AM,37.9,24.1,57,29.87,10.0,WNW,11.5,-,N/A,,Clear,300,2013-03-27 06:51:00
3:51 AM,37.9,21.9,53,29.87,10.0,NNW,11.5,-,N/A,,Clear,330,2013-03-27 07:51:00
4:51 AM,37.0,21.9,54,29.88,10.0,WNW,10.4,-,N/A,,Partly Cloudy,290,2013-03-27 08:51:00
5:51 AM,36.0,21.9,57,29.89,10.0,WNW,9.2,-,N/A,,Partly Cloudy,300,2013-03-27 09:51:00
6:51 AM,35.1,23.0,61,29.91,10.0,West,8.1,-,N/A,,Partly Cloudy,280,2013-03-27 10:51:00
7:51 AM,39.0,26.1,60,29.92,10.0,WNW,10.4,-,N/A,,Partly Cloudy,290,2013-03-27 11:51:00
8:51 AM,42.1,27.0,55,29.93,10.0,WNW,15.0,-,N/A,,Partly Cloudy,290,2013-03-27 12:51:00
9:51 AM,46.0,27.0,47,29.93,10.0,NW,15.0,21.9,N/A,,Scattered Clouds,310,2013-03-27 13:51:00
10:51 AM,48.0,27.0,44,29.92,10.0,WNW,15.0,21.9,N/A,,Scattered Clouds,300,2013-03-27 14:51:00
11:51 AM,50.0,26.6,40,29.91,10.0,West,16.1,23.0,N/A,,Scattered Clouds,280,2013-03-27 15:51:00
12:51 PM,48.9,23.0,36,29.90,10.0,West,16.1,21.9,N/A,,Mostly Cloudy,280,2013-03-27 16:51:00
1:51 PM,48.0,25.0,41,29.89,10.0,WNW,17.3,25.3,0.00,Rain,Light Rain,290,2013-03-27 17:51:00
1:57 PM,48.2,23.0,37,29.89,10.0,NW,9.2,-,N/A,,Mostly Cloudy,310,2013-03-27 17:57:00
2:51 PM,53.1,19.0,26,29.88,10.0,NNW,8.1,-,N/A,,Mostly Cloudy,330,2013-03-27 18:51:00
3:51 PM,54.0,17.1,23,29.87,10.0,WNW,12.7,23.0,N/A,,Mostly Cloudy,290,2013-03-27 19:51:00
4:51 PM,54.0,18.0,24,29.88,10.0,NW,16.1,23.0,N/A,,Mostly Cloudy,310,2013-03-27 20:51:00
5:51 PM,52.0,19.0,27,29.89,10.0,NW,19.6,-,N/A,,Scattered Clouds,320,2013-03-27 21:51:00
6:51 PM,48.9,21.9,35,29.91,10.0,WNW,16.1,24.2,N/A,,Mostly Cloudy,290,2013-03-27 22:51:00
7:51 PM,46.9,26.1,44,29.95,10.0,NW,17.3,26.5,N/A,,Mostly Cloudy,320,2013-03-27 23:51:00
8:51 PM,46.0,27.0,47,29.96,10.0,WNW,17.3,21.9,N/A,,Mostly Cloudy,300,2013-03-28 00:51:00
9:51 PM,44.1,27.0,51,29.98,10.0,NW,15.0,24.2,N/A,,Scattered Clouds,310,2013-03-28 01:51:00
10:51 PM,43.0,28.9,58,29.98,10.0,WNW,15.0,-,N/A,,Scattered Clouds,290,2013-03-28 02:51:00
11:51 PM,41.0,28.9,62,29.98,10.0,WNW,12.7,-,N/A,,Scattered Clouds,290,2013-03-28 03:51:00